createdAt,value
2022-12-10T00:00:06.865Z,0.60
2022-12-10T00:00:15.736Z,0.60
2022-12-10T00:00:25.157Z,0.60
2022-12-10T00:00:43.998Z,0.60
2022-12-10T00:00:53.419Z,0.60
2022-12-10T00:01:02.839Z,0.60
2022-12-10T00:01:12.221Z,0.50
2022-12-10T00:01:21.605Z,0.50
2022-12-10T00:01:31.005Z,0.50
2022-12-10T00:01:40.413Z,0.50
2022-12-10T00:01:49.835Z,0.50
2022-12-10T00:01:59.230Z,0.50
2022-12-10T00:02:08.646Z,0.50
2022-12-10T00:02:18.059Z,0.50
2022-12-10T00:02:27.502Z,0.50
2022-12-10T00:02:36.884Z,0.50
2022-12-10T00:02:46.295Z,0.50
2022-12-10T00:02:55.693Z,0.50
2022-12-10T00:03:05.129Z,0.50
2022-12-10T00:03:23.871Z,0.50
2022-12-10T00:03:33.276Z,0.50
2022-12-10T00:03:42.629Z,0.50
2022-12-10T00:03:52.038Z,0.50
2022-12-10T00:04:01.432Z,0.50
2022-12-10T00:04:10.831Z,0.50
2022-12-10T00:04:20.327Z,0.50
2022-12-10T00:04:29.742Z,0.50
2022-12-10T00:04:39.140Z,0.50
2022-12-10T00:04:49.571Z,0.50
2022-12-10T00:04:57.891Z,0.50
2022-12-10T00:05:07.593Z,0.50
2022-12-10T00:05:16.986Z,0.50
2022-12-10T00:05:26.321Z,0.50
2022-12-10T00:05:35.770Z,0.50
2022-12-10T00:05:45.165Z,0.50
2022-12-10T00:06:03.955Z,0.40
2022-12-10T00:06:13.352Z,0.40
2022-12-10T00:06:22.741Z,0.40
2022-12-10T00:06:32.137Z,0.40
2022-12-10T00:06:41.535Z,0.40
2022-12-10T00:06:50.931Z,0.40
2022-12-10T00:07:00.318Z,0.40
2022-12-10T00:07:09.722Z,0.40
2022-12-10T00:07:19.121Z,0.30
2022-12-10T00:07:28.549Z,0.30
2022-12-10T00:07:37.951Z,0.30
2022-12-10T00:07:47.458Z,0.30
2022-12-10T00:07:56.833Z,0.30
2022-12-10T00:08:06.260Z,0.30
2022-12-10T00:08:15.671Z,0.30
2022-12-10T00:08:25.038Z,0.30
2022-12-10T00:08:43.810Z,0.30
2022-12-10T00:08:53.200Z,0.30
2022-12-10T00:09:02.590Z,0.30
2022-12-10T00:09:12.014Z,0.30
2022-12-10T00:09:21.431Z,0.30
2022-12-10T00:09:30.815Z,0.30
2022-12-10T00:09:40.185Z,0.30
2022-12-10T00:09:49.559Z,0.20
2022-12-10T00:09:58.951Z,0.30
2022-12-10T00:10:10.983Z,0.30
2022-12-10T00:10:17.749Z,0.30
2022-12-10T00:10:27.129Z,0.20
2022-12-10T00:10:36.508Z,0.30
2022-12-10T00:10:45.903Z,0.30
2022-12-10T00:10:55.294Z,0.20
2022-12-10T00:11:14.084Z,0.20
2022-12-10T00:11:23.477Z,0.20
2022-12-10T00:11:32.866Z,0.30
2022-12-10T00:11:42.256Z,0.20
2022-12-10T00:11:51.643Z,0.20
2022-12-10T00:12:01.034Z,0.20
2022-12-10T00:12:10.416Z,0.20
2022-12-10T00:12:19.808Z,0.20
2022-12-10T00:12:29.202Z,0.20
2022-12-10T00:12:38.581Z,0.20
2022-12-10T00:12:47.964Z,0.20
2022-12-10T00:12:57.379Z,0.20
2022-12-10T00:13:06.846Z,0.20
2022-12-10T00:13:16.225Z,0.20
2022-12-10T00:13:25.646Z,0.20
2022-12-10T00:13:35.046Z,0.20
2022-12-10T00:13:53.906Z,0.20
2022-12-10T00:14:03.361Z,0.20
2022-12-10T00:14:12.753Z,0.20
2022-12-10T00:14:22.160Z,0.20
2022-12-10T00:14:31.557Z,0.20
2022-12-10T00:14:40.963Z,0.20
2022-12-10T00:14:50.375Z,0.20
2022-12-10T00:14:59.776Z,0.20
2022-12-10T00:15:09.169Z,0.20
2022-12-10T00:15:18.564Z,0.20
2022-12-10T00:15:28.005Z,0.20
2022-12-10T00:15:37.393Z,0.20
2022-12-10T00:15:46.914Z,0.20
2022-12-10T00:15:56.230Z,0.30
2022-12-10T00:16:05.655Z,0.20
2022-12-10T00:16:15.029Z,0.20
2022-12-10T00:16:33.826Z,0.30
2022-12-10T00:16:43.275Z,0.30
2022-12-10T00:16:52.563Z,0.30
2022-12-10T00:17:01.953Z,0.30
2022-12-10T00:17:13.031Z,0.30
2022-12-10T00:17:20.768Z,0.30
2022-12-10T00:17:30.181Z,0.30
2022-12-10T00:17:39.564Z,0.30
2022-12-10T00:17:48.957Z,0.30
2022-12-10T00:17:58.341Z,0.30
2022-12-10T00:18:07.735Z,0.30
2022-12-10T00:18:17.123Z,0.30
2022-12-10T00:18:26.550Z,0.30
2022-12-10T00:18:35.965Z,0.30
2022-12-10T00:18:45.327Z,0.30
2022-12-10T00:18:54.731Z,0.30
2022-12-10T00:19:13.499Z,0.30
2022-12-10T00:19:22.899Z,0.30
2022-12-10T00:19:32.311Z,0.30
2022-12-10T00:19:41.727Z,0.30
2022-12-10T00:19:51.188Z,0.30
2022-12-10T00:20:00.577Z,0.30
2022-12-10T00:20:10.312Z,0.30
2022-12-10T00:20:19.394Z,0.30
2022-12-10T00:20:28.786Z,0.30
2022-12-10T00:20:38.193Z,0.30
2022-12-10T00:20:47.598Z,0.30
2022-12-10T00:20:56.981Z,0.30
2022-12-10T00:21:06.381Z,0.30
2022-12-10T00:21:15.788Z,0.40
2022-12-10T00:21:25.199Z,0.30
2022-12-10T00:21:43.958Z,0.40
2022-12-10T00:21:53.353Z,0.40
2022-12-10T00:22:02.747Z,0.40
2022-12-10T00:22:12.161Z,0.40
2022-12-10T00:22:21.577Z,0.40
2022-12-10T00:22:30.976Z,0.40
2022-12-10T00:22:40.384Z,0.40
2022-12-10T00:22:49.793Z,0.40
2022-12-10T00:22:59.280Z,0.40
2022-12-10T00:23:08.704Z,0.40
2022-12-10T00:23:23.134Z,0.40
2022-12-10T00:23:27.811Z,0.40
2022-12-10T00:23:37.232Z,0.40
2022-12-10T00:23:46.613Z,0.40
2022-12-10T00:23:56.029Z,0.40
2022-12-10T00:24:05.415Z,0.40
2022-12-10T00:24:14.834Z,0.40
2022-12-10T00:24:33.682Z,0.40
2022-12-10T00:24:43.165Z,0.40
2022-12-10T00:24:52.567Z,0.40
2022-12-10T00:25:01.982Z,0.40
2022-12-10T00:25:11.424Z,0.40
2022-12-10T00:25:20.885Z,0.40
2022-12-10T00:25:30.305Z,0.40
2022-12-10T00:25:39.727Z,0.40
2022-12-10T00:25:49.135Z,0.40
2022-12-10T00:25:58.635Z,0.30
2022-12-10T00:26:08.103Z,0.30
2022-12-10T00:26:17.540Z,0.30
2022-12-10T00:26:26.933Z,0.30
2022-12-10T00:26:36.371Z,0.30
2022-12-10T00:26:45.800Z,0.20
2022-12-10T00:26:55.270Z,0.20
2022-12-10T00:27:14.110Z,0.10
2022-12-10T00:27:23.570Z,0.10
2022-12-10T00:27:32.955Z,0.10
2022-12-10T00:27:42.370Z,0.10
2022-12-10T00:27:51.766Z,0.00
2022-12-10T00:28:01.257Z,0.00
2022-12-10T00:28:10.846Z,0.00
2022-12-10T00:28:20.266Z,-0.10
2022-12-10T00:28:29.722Z,-0.10
2022-12-10T00:28:39.168Z,-0.10
2022-12-10T00:28:48.650Z,-0.10
2022-12-10T00:28:58.079Z,-0.20
2022-12-10T00:29:07.720Z,-0.20
2022-12-10T00:29:17.210Z,-0.20
2022-12-10T00:29:26.787Z,-0.20
2022-12-10T00:29:36.346Z,-0.30
2022-12-10T00:29:45.753Z,-0.30
2022-12-10T00:29:55.140Z,-0.30
2022-12-10T00:30:13.909Z,-0.40
2022-12-10T00:30:23.346Z,-0.40
2022-12-10T00:30:32.730Z,-0.50
2022-12-10T00:30:42.119Z,-0.50
2022-12-10T00:30:51.520Z,-0.50
2022-12-10T00:31:00.965Z,-0.50
2022-12-10T00:31:10.431Z,-0.50
2022-12-10T00:31:19.771Z,-0.60
2022-12-10T00:31:29.222Z,-0.60
2022-12-10T00:31:38.568Z,-0.60
2022-12-10T00:31:48.027Z,-0.60
2022-12-10T00:31:57.429Z,-0.70
2022-12-10T00:32:06.834Z,-0.70
2022-12-10T00:32:16.238Z,-0.70
2022-12-10T00:32:25.647Z,-0.70
2022-12-10T00:32:35.064Z,-0.70
2022-12-10T00:32:53.852Z,-0.70
2022-12-10T00:33:03.263Z,-0.80
2022-12-10T00:33:12.681Z,-0.80
2022-12-10T00:33:22.095Z,-0.80
2022-12-10T00:33:31.514Z,-0.80
2022-12-10T00:33:40.942Z,-0.80
2022-12-10T00:33:50.311Z,-0.80
2022-12-10T00:33:59.714Z,-0.80
2022-12-10T00:34:09.137Z,-0.90
2022-12-10T00:34:18.526Z,-0.90
2022-12-10T00:34:27.917Z,-0.90
2022-12-10T00:34:37.324Z,-0.90
2022-12-10T00:34:46.753Z,-0.90
2022-12-10T00:34:56.155Z,-0.90
2022-12-10T00:35:05.558Z,-0.90
2022-12-10T00:35:15.018Z,-0.90
2022-12-10T00:35:33.890Z,-0.90
2022-12-10T00:35:43.293Z,-0.90
2022-12-10T00:35:52.680Z,-1.00
2022-12-10T00:36:02.077Z,-1.00
2022-12-10T00:36:11.490Z,-1.00
2022-12-10T00:36:20.898Z,-1.00
2022-12-10T00:36:30.300Z,-1.00
2022-12-10T00:36:39.706Z,-1.00
2022-12-10T00:36:49.111Z,-1.00
2022-12-10T00:36:58.487Z,-1.00
2022-12-10T00:37:07.913Z,-1.00
2022-12-10T00:37:17.314Z,-1.00
2022-12-10T00:37:26.692Z,-1.10
2022-12-10T00:37:36.084Z,-1.10
2022-12-10T00:37:45.480Z,-1.10
2022-12-10T00:37:54.866Z,-1.10
2022-12-10T00:38:13.669Z,-1.10
2022-12-10T00:38:23.083Z,-1.30
2022-12-10T00:38:32.549Z,-1.10
2022-12-10T00:38:43.812Z,-1.10
2022-12-10T00:38:51.390Z,-1.10
2022-12-10T00:39:00.783Z,-1.10
2022-12-10T00:39:10.344Z,-1.20
2022-12-10T00:39:19.768Z,-1.20
2022-12-10T00:39:29.174Z,-1.20
2022-12-10T00:39:40.361Z,-1.10
2022-12-10T00:39:48.008Z,-1.20
2022-12-10T00:39:57.401Z,-1.20
2022-12-10T00:40:07.161Z,-1.20
2022-12-10T00:40:16.219Z,-1.20
2022-12-10T00:40:25.622Z,-1.20
2022-12-10T00:40:35.032Z,-1.20
2022-12-10T00:40:53.822Z,-1.20
2022-12-10T00:41:03.237Z,-1.20
2022-12-10T00:41:12.605Z,-1.20
2022-12-10T00:41:22.030Z,-1.20
2022-12-10T00:41:31.444Z,-1.20
2022-12-10T00:41:40.855Z,-1.20
2022-12-10T00:41:50.268Z,-1.30
2022-12-10T00:41:59.684Z,-1.30
2022-12-10T00:42:09.089Z,-1.30
2022-12-10T00:42:18.459Z,-1.30
2022-12-10T00:42:27.913Z,-1.30
2022-12-10T00:42:37.318Z,-1.30
2022-12-10T00:42:46.730Z,-1.30
2022-12-10T00:42:56.140Z,-1.30
2022-12-10T00:43:05.559Z,-1.30
2022-12-10T00:43:14.948Z,-1.30
2022-12-10T00:43:33.782Z,-1.30
2022-12-10T00:43:43.239Z,-1.30
2022-12-10T00:43:52.617Z,-1.30
2022-12-10T00:44:02.025Z,-1.30
2022-12-10T00:44:11.486Z,-1.30
2022-12-10T00:44:20.890Z,-1.30
2022-12-10T00:44:30.284Z,-1.40
2022-12-10T00:44:39.659Z,-1.40
2022-12-10T00:44:49.053Z,-1.40
2022-12-10T00:44:58.453Z,-1.40
2022-12-10T00:45:07.852Z,-1.40
2022-12-10T00:45:17.258Z,-1.40
2022-12-10T00:45:26.659Z,-1.40
2022-12-10T00:45:36.062Z,-1.40
2022-12-10T00:45:45.474Z,-1.40
2022-12-10T00:45:54.863Z,-1.40
2022-12-10T00:46:13.772Z,-1.40
2022-12-10T00:46:23.192Z,-1.50
2022-12-10T00:46:32.550Z,-1.50
2022-12-10T00:46:41.925Z,-1.50
2022-12-10T00:46:51.435Z,-1.50
2022-12-10T00:47:00.858Z,-1.50
2022-12-10T00:47:10.149Z,-1.50
2022-12-10T00:47:19.573Z,-1.50
2022-12-10T00:47:29.006Z,-1.50
2022-12-10T00:47:38.371Z,-1.60
2022-12-10T00:47:47.798Z,-1.60
2022-12-10T00:47:57.175Z,-1.60
2022-12-10T00:48:06.630Z,-1.60
2022-12-10T00:48:15.952Z,-1.50
2022-12-10T00:48:25.401Z,-1.50
2022-12-10T00:48:34.811Z,-1.50
2022-12-10T00:48:53.629Z,-1.50
2022-12-10T00:49:03.046Z,-1.50
2022-12-10T00:49:12.453Z,-1.50
2022-12-10T00:49:21.856Z,-1.50
2022-12-10T00:49:31.299Z,-1.50
2022-12-10T00:49:40.694Z,-1.50
2022-12-10T00:49:50.170Z,-1.50
2022-12-10T00:49:59.663Z,-1.50
2022-12-10T00:50:09.475Z,-1.50
2022-12-10T00:50:18.503Z,-1.50
2022-12-10T00:50:27.893Z,-1.50
2022-12-10T00:50:37.292Z,-1.50
2022-12-10T00:50:46.695Z,-1.50
2022-12-10T00:50:56.088Z,-1.50
2022-12-10T00:51:05.468Z,-1.50
2022-12-10T00:51:14.888Z,-1.50
2022-12-10T00:51:33.719Z,-1.50
2022-12-10T00:51:43.128Z,-1.50
2022-12-10T00:51:52.522Z,-1.50
2022-12-10T00:52:01.932Z,-1.50
2022-12-10T00:52:11.388Z,-1.50
2022-12-10T00:52:20.785Z,-1.50
2022-12-10T00:52:30.218Z,-1.50
2022-12-10T00:52:39.614Z,-1.50
2022-12-10T00:52:49.031Z,-1.50
2022-12-10T00:52:58.437Z,-1.50
2022-12-10T00:53:07.841Z,-1.50
2022-12-10T00:53:17.243Z,-1.50
2022-12-10T00:53:26.639Z,-1.50
2022-12-10T00:53:36.046Z,-1.50
2022-12-10T00:53:45.455Z,-1.50
2022-12-10T00:53:54.890Z,-1.50
2022-12-10T00:54:13.783Z,-1.50
2022-12-10T00:54:23.147Z,-1.50
2022-12-10T00:54:32.560Z,-1.50
2022-12-10T00:54:41.962Z,-1.50
2022-12-10T00:54:51.428Z,-1.50
2022-12-10T00:55:00.832Z,-1.50
2022-12-10T00:55:10.258Z,-1.50
2022-12-10T00:55:19.648Z,-1.50
2022-12-10T00:55:29.064Z,-1.50
2022-12-10T00:55:38.481Z,-1.50
2022-12-10T00:55:47.875Z,-1.30
2022-12-10T00:55:57.289Z,-1.50
2022-12-10T00:56:06.698Z,-1.40
2022-12-10T00:56:16.091Z,-1.50
2022-12-10T00:56:25.496Z,-1.50
2022-12-10T00:56:34.927Z,-1.50
2022-12-10T00:56:53.708Z,-1.50
2022-12-10T00:57:03.111Z,-1.50
2022-12-10T00:57:12.512Z,-1.50
2022-12-10T00:57:21.969Z,-1.50
2022-12-10T00:57:31.464Z,-1.50
2022-12-10T00:57:40.866Z,-1.40
2022-12-10T00:57:50.262Z,-1.40
2022-12-10T00:57:59.795Z,-1.40
2022-12-10T00:58:09.209Z,-1.40
2022-12-10T00:58:18.667Z,-1.30
2022-12-10T00:58:28.063Z,-1.40
2022-12-10T00:58:37.471Z,-1.40
2022-12-10T00:58:46.867Z,-1.40
2022-12-10T00:58:56.256Z,-1.40
2022-12-10T00:59:05.672Z,-1.40
2022-12-10T00:59:15.169Z,-1.40
2022-12-10T00:59:34.008Z,-1.40
2022-12-10T00:59:43.410Z,-1.40
2022-12-10T00:59:52.873Z,-1.40
2022-12-10T01:00:02.306Z,-1.40
2022-12-10T01:00:11.692Z,-1.40
2022-12-10T01:00:21.118Z,-1.40
2022-12-10T01:00:30.679Z,-1.40
2022-12-10T01:00:40.086Z,-1.40
2022-12-10T01:00:49.477Z,-1.40
2022-12-10T01:00:58.836Z,-1.40
2022-12-10T01:01:08.242Z,-1.40
2022-12-10T01:01:17.658Z,-1.40
2022-12-10T01:01:27.009Z,-1.40
2022-12-10T01:01:36.460Z,-1.40
2022-12-10T01:01:45.895Z,-1.40
2022-12-10T01:01:55.333Z,-1.40
2022-12-10T01:02:14.139Z,-1.40
2022-12-10T01:02:23.540Z,-1.40
2022-12-10T01:02:32.926Z,-1.40
2022-12-10T01:02:42.333Z,-1.40
2022-12-10T01:02:51.714Z,-1.40
2022-12-10T01:03:01.119Z,-1.40
2022-12-10T01:03:10.544Z,-1.40
2022-12-10T01:03:19.961Z,-1.40
2022-12-10T01:03:29.350Z,-1.40
2022-12-10T01:03:38.799Z,-1.40
2022-12-10T01:03:48.220Z,-1.40
2022-12-10T01:03:57.643Z,-1.40
2022-12-10T01:04:07.034Z,-1.40
2022-12-10T01:04:16.443Z,-1.40
2022-12-10T01:04:25.925Z,-1.40
2022-12-10T01:04:35.327Z,-1.40
2022-12-10T01:04:44.721Z,-1.40
2022-12-10T01:05:03.534Z,-1.40
2022-12-10T01:05:12.979Z,-1.40
2022-12-10T01:05:22.376Z,-1.40
2022-12-10T01:05:31.786Z,-1.40
2022-12-10T01:05:41.217Z,-1.50
2022-12-10T01:05:50.664Z,-1.40
2022-12-10T01:06:00.084Z,-1.40
2022-12-10T01:06:09.506Z,-1.50
2022-12-10T01:06:18.905Z,-1.50
2022-12-10T01:06:28.315Z,-1.50
2022-12-10T01:06:37.727Z,-1.50
2022-12-10T01:06:47.137Z,-1.50
2022-12-10T01:06:56.535Z,-1.50
2022-12-10T01:07:11.102Z,-1.50
2022-12-10T01:07:15.330Z,-1.50
2022-12-10T01:07:24.754Z,-1.50
2022-12-10T01:07:43.603Z,-1.50
2022-12-10T01:07:52.981Z,-1.50
2022-12-10T01:08:02.399Z,-1.50
2022-12-10T01:08:11.828Z,-1.50
2022-12-10T01:08:21.255Z,-1.50
2022-12-10T01:08:30.548Z,-1.50
2022-12-10T01:08:39.993Z,-1.50
2022-12-10T01:08:49.423Z,-1.50
2022-12-10T01:08:58.829Z,-1.50
2022-12-10T01:09:08.234Z,-1.40
2022-12-10T01:09:17.652Z,-1.50
2022-12-10T01:09:27.022Z,-1.50
2022-12-10T01:09:36.432Z,-1.50
2022-12-10T01:09:45.867Z,-1.50
2022-12-10T01:09:55.267Z,-1.50
2022-12-10T01:10:14.110Z,-1.50
2022-12-10T01:10:23.518Z,-1.50
2022-12-10T01:10:32.979Z,-1.50
2022-12-10T01:10:42.389Z,-1.50
2022-12-10T01:10:51.800Z,-1.50
2022-12-10T01:11:01.260Z,-1.50
2022-12-10T01:11:10.670Z,-1.50
2022-12-10T01:11:20.043Z,-1.50
2022-12-10T01:11:29.474Z,-1.50
2022-12-10T01:11:38.906Z,-1.50
2022-12-10T01:11:48.338Z,-1.50
2022-12-10T01:11:57.771Z,-1.50
2022-12-10T01:12:07.191Z,-1.50
2022-12-10T01:12:16.609Z,-1.50
2022-12-10T01:12:26.057Z,-1.50
2022-12-10T01:12:35.492Z,-1.50
2022-12-10T01:12:44.857Z,-1.50
2022-12-10T01:13:03.681Z,-1.50
2022-12-10T01:13:13.106Z,-1.50
2022-12-10T01:13:22.497Z,-1.50
2022-12-10T01:13:31.890Z,-1.50
2022-12-10T01:13:41.715Z,-1.50
2022-12-10T01:13:51.113Z,-1.50
2022-12-10T01:14:00.509Z,-1.50
2022-12-10T01:14:09.928Z,-1.50
2022-12-10T01:14:19.351Z,-1.50
2022-12-10T01:14:28.760Z,-1.50
2022-12-10T01:14:38.176Z,-1.50
2022-12-10T01:14:47.609Z,-1.50
2022-12-10T01:14:56.984Z,-1.50
2022-12-10T01:15:06.382Z,-1.50
2022-12-10T01:15:15.805Z,-1.50
2022-12-10T01:15:25.221Z,-1.50
2022-12-10T01:15:44.037Z,-1.50
2022-12-10T01:15:53.478Z,-1.50
2022-12-10T01:16:02.899Z,-1.50
2022-12-10T01:16:12.267Z,-1.50
2022-12-10T01:16:21.747Z,-1.50
2022-12-10T01:16:31.087Z,-1.50
2022-12-10T01:16:40.549Z,-1.50
2022-12-10T01:16:49.904Z,-1.50
2022-12-10T01:16:59.326Z,-1.50
2022-12-10T01:17:08.736Z,-1.50
2022-12-10T01:17:18.146Z,-1.50
2022-12-10T01:17:27.555Z,-1.50
2022-12-10T01:17:36.949Z,-1.50
2022-12-10T01:17:46.374Z,-1.50
2022-12-10T01:17:55.776Z,-1.50
2022-12-10T01:18:05.163Z,-1.50
2022-12-10T01:18:23.973Z,-1.50
2022-12-10T01:18:33.420Z,-1.50
2022-12-10T01:18:42.836Z,-1.50
2022-12-10T01:18:52.304Z,-1.50
2022-12-10T01:19:01.678Z,-1.50
2022-12-10T01:19:11.083Z,-1.50
2022-12-10T01:19:20.672Z,-1.50
2022-12-10T01:19:30.055Z,-1.50
2022-12-10T01:19:39.459Z,-1.50
2022-12-10T01:19:48.856Z,-1.50
2022-12-10T01:19:58.267Z,-1.50
2022-12-10T01:20:07.964Z,-1.50
2022-12-10T01:20:17.054Z,-1.50
2022-12-10T01:20:26.441Z,-1.50
2022-12-10T01:20:35.860Z,-1.40
2022-12-10T01:20:45.290Z,-1.50
2022-12-10T01:21:04.105Z,-1.50
2022-12-10T01:21:13.492Z,-1.50
2022-12-10T01:21:22.876Z,-1.50
2022-12-10T01:21:32.283Z,-1.50
2022-12-10T01:21:41.684Z,-1.50
2022-12-10T01:21:51.091Z,-1.50
2022-12-10T01:22:00.475Z,-1.50
2022-12-10T01:22:09.886Z,-1.50
2022-12-10T01:22:19.286Z,-1.50
2022-12-10T01:22:28.697Z,-1.50
2022-12-10T01:22:38.119Z,-1.50
2022-12-10T01:22:47.546Z,-1.50
2022-12-10T01:22:56.932Z,-1.50
2022-12-10T01:23:06.325Z,-1.50
2022-12-10T01:23:15.736Z,-1.50
2022-12-10T01:23:25.155Z,-1.50
2022-12-10T01:23:43.978Z,-1.50
2022-12-10T01:23:53.408Z,-1.50
2022-12-10T01:24:02.807Z,-1.50
2022-12-10T01:24:12.221Z,-1.50
2022-12-10T01:24:21.611Z,-1.50
2022-12-10T01:24:31.019Z,-1.50
2022-12-10T01:24:40.425Z,-1.50
2022-12-10T01:24:49.832Z,-1.50
2022-12-10T01:24:59.234Z,-1.50
2022-12-10T01:25:08.641Z,-1.50
2022-12-10T01:25:18.039Z,-1.50
2022-12-10T01:25:27.434Z,-1.50
2022-12-10T01:25:36.879Z,-1.50
2022-12-10T01:25:46.275Z,-1.50
2022-12-10T01:25:55.674Z,-1.50
2022-12-10T01:26:05.080Z,-1.50
2022-12-10T01:26:23.944Z,-1.50
2022-12-10T01:26:33.388Z,-1.50
2022-12-10T01:26:42.804Z,-1.50
2022-12-10T01:26:52.240Z,-1.50
2022-12-10T01:27:01.619Z,-1.60
2022-12-10T01:27:11.066Z,-1.60
2022-12-10T01:27:20.470Z,-1.40
2022-12-10T01:27:29.880Z,-1.60
2022-12-10T01:27:39.302Z,-1.60
2022-12-10T01:27:48.694Z,-1.50
2022-12-10T01:27:58.193Z,-1.60
2022-12-10T01:28:07.623Z,-1.60
2022-12-10T01:28:17.036Z,-1.60
2022-12-10T01:28:26.466Z,-1.60
2022-12-10T01:28:35.881Z,-1.60
2022-12-10T01:28:45.272Z,-1.60
2022-12-10T01:29:04.051Z,-1.60
2022-12-10T01:29:13.472Z,-1.60
2022-12-10T01:29:22.894Z,-1.60
2022-12-10T01:29:32.292Z,-1.60
2022-12-10T01:29:41.702Z,-1.60
2022-12-10T01:29:51.108Z,-1.60
2022-12-10T01:30:00.494Z,-1.60
2022-12-10T01:30:10.403Z,-1.60
2022-12-10T01:30:19.322Z,-1.60
2022-12-10T01:30:28.726Z,-1.60
2022-12-10T01:30:38.150Z,-1.60
2022-12-10T01:30:47.570Z,-1.60
2022-12-10T01:30:57.009Z,-1.60
2022-12-10T01:31:06.465Z,-1.70
2022-12-10T01:31:15.864Z,-1.60
2022-12-10T01:31:25.366Z,-1.70
2022-12-10T01:31:44.113Z,-1.70
2022-12-10T01:31:53.524Z,-1.70
2022-12-10T01:32:02.918Z,-1.70
2022-12-10T01:32:12.270Z,-1.70
2022-12-10T01:32:21.659Z,-1.70
2022-12-10T01:32:31.073Z,-1.70
2022-12-10T01:32:40.479Z,-1.70
2022-12-10T01:32:49.902Z,-1.70
2022-12-10T01:32:59.302Z,-1.70
2022-12-10T01:33:08.708Z,-1.80
2022-12-10T01:33:18.143Z,-1.80
2022-12-10T01:33:27.539Z,-1.80
2022-12-10T01:33:36.972Z,-1.80
2022-12-10T01:33:46.400Z,-1.80
2022-12-10T01:33:55.813Z,-1.80
2022-12-10T01:34:05.206Z,-1.80
2022-12-10T01:34:24.050Z,-1.80
2022-12-10T01:34:33.445Z,-1.80
2022-12-10T01:34:42.853Z,-1.80
2022-12-10T01:34:52.274Z,-1.90
2022-12-10T01:35:01.671Z,-1.80
2022-12-10T01:35:11.079Z,-1.90
2022-12-10T01:35:20.499Z,-1.90
2022-12-10T01:35:29.891Z,-1.90
2022-12-10T01:35:39.296Z,-1.90
2022-12-10T01:35:48.692Z,-1.90
2022-12-10T01:35:58.177Z,-1.90
2022-12-10T01:36:07.579Z,-1.90
2022-12-10T01:36:16.996Z,-1.90
2022-12-10T01:36:26.388Z,-1.90
2022-12-10T01:36:35.784Z,-1.90
2022-12-10T01:36:45.193Z,-1.90
2022-12-10T01:37:04.002Z,-1.90
2022-12-10T01:37:13.684Z,-1.90
2022-12-10T01:37:23.096Z,-1.90
2022-12-10T01:37:32.494Z,-1.90
2022-12-10T01:37:41.891Z,-1.90
2022-12-10T01:37:51.307Z,-1.90
2022-12-10T01:38:00.695Z,-1.90
2022-12-10T01:38:10.126Z,-1.90
2022-12-10T01:38:19.530Z,-1.90
2022-12-10T01:38:28.935Z,-1.90
2022-12-10T01:38:38.348Z,-1.90
2022-12-10T01:38:47.763Z,-1.90
2022-12-10T01:38:57.216Z,-1.90
2022-12-10T01:39:06.632Z,-1.90
2022-12-10T01:39:16.265Z,-1.90
2022-12-10T01:39:25.666Z,-1.90
2022-12-10T01:39:35.055Z,-1.90
2022-12-10T01:39:53.819Z,-1.90
2022-12-10T01:40:03.260Z,-1.90
2022-12-10T01:40:12.656Z,-1.90
2022-12-10T01:40:22.080Z,-1.90
2022-12-10T01:40:31.461Z,-1.90
2022-12-10T01:40:40.871Z,-1.90
2022-12-10T01:40:50.286Z,-1.90
2022-12-10T01:40:59.691Z,-1.90
2022-12-10T01:41:09.097Z,-1.90
2022-12-10T01:41:18.514Z,-1.90
2022-12-10T01:41:27.968Z,-1.90
2022-12-10T01:41:37.366Z,-1.90
2022-12-10T01:41:46.759Z,-1.90
2022-12-10T01:41:56.168Z,-1.90
2022-12-10T01:42:05.565Z,-1.90
2022-12-10T01:42:14.966Z,-1.90
2022-12-10T01:42:33.772Z,-1.90
2022-12-10T01:42:43.179Z,-1.90
2022-12-10T01:42:52.612Z,-1.90
2022-12-10T01:43:01.997Z,-1.90
2022-12-10T01:43:11.409Z,-1.90
2022-12-10T01:43:20.815Z,-1.90
2022-12-10T01:43:30.223Z,-1.90
2022-12-10T01:43:39.658Z,-1.90
2022-12-10T01:43:49.060Z,-1.90
2022-12-10T01:43:58.444Z,-1.80
2022-12-10T01:44:07.861Z,-1.90
2022-12-10T01:44:17.259Z,-1.80
2022-12-10T01:44:26.648Z,-1.80
2022-12-10T01:44:36.027Z,-1.80
2022-12-10T01:44:45.437Z,-1.90
2022-12-10T01:44:54.835Z,-1.80
2022-12-10T01:45:13.680Z,-1.80
2022-12-10T01:45:23.074Z,-1.80
2022-12-10T01:45:32.553Z,-1.80
2022-12-10T01:45:41.991Z,-1.80
2022-12-10T01:45:51.350Z,-1.80
2022-12-10T01:46:00.745Z,-1.80
2022-12-10T01:46:10.269Z,-1.80
2022-12-10T01:46:19.582Z,-1.80
2022-12-10T01:46:28.973Z,-1.80
2022-12-10T01:46:38.367Z,-1.80
2022-12-10T01:46:47.782Z,-1.80
2022-12-10T01:46:57.170Z,-1.80
2022-12-10T01:47:06.617Z,-1.80
2022-12-10T01:47:16.028Z,-1.80
2022-12-10T01:47:25.445Z,-1.80
2022-12-10T01:47:34.849Z,-1.80
2022-12-10T01:47:53.675Z,-1.80
2022-12-10T01:48:07.831Z,-1.80
2022-12-10T01:48:12.497Z,-1.80
2022-12-10T01:48:21.901Z,-1.80
2022-12-10T01:48:31.317Z,-1.80
2022-12-10T01:48:40.717Z,-1.80
2022-12-10T01:48:50.116Z,-1.80
2022-12-10T01:48:59.588Z,-1.80
2022-12-10T01:49:08.963Z,-1.80
2022-12-10T01:49:18.359Z,-1.80
2022-12-10T01:49:27.758Z,-1.80
2022-12-10T01:49:37.153Z,-1.80
2022-12-10T01:49:46.557Z,-1.80
2022-12-10T01:49:55.944Z,-1.80
2022-12-10T01:50:05.674Z,-1.80
2022-12-10T01:50:14.763Z,-1.80
2022-12-10T01:50:33.642Z,-1.80
2022-12-10T01:50:43.047Z,-1.80
2022-12-10T01:50:52.446Z,-1.80
2022-12-10T01:51:01.846Z,-1.80
2022-12-10T01:51:11.273Z,-1.80
2022-12-10T01:51:20.658Z,-1.80
2022-12-10T01:51:30.062Z,-1.80
2022-12-10T01:51:39.530Z,-1.80
2022-12-10T01:51:48.926Z,-1.80
2022-12-10T01:51:58.339Z,-1.80
2022-12-10T01:52:07.738Z,-1.80
2022-12-10T01:52:17.145Z,-1.70
2022-12-10T01:52:26.533Z,-1.80
2022-12-10T01:52:35.984Z,-1.80
2022-12-10T01:52:45.388Z,-1.80
2022-12-10T01:52:54.777Z,-1.70
2022-12-10T01:53:13.582Z,-1.70
2022-12-10T01:53:22.981Z,-1.70
2022-12-10T01:53:32.397Z,-1.70
2022-12-10T01:53:41.830Z,-1.70
2022-12-10T01:53:51.233Z,-1.70
2022-12-10T01:54:00.648Z,-1.70
2022-12-10T01:54:10.033Z,-1.70
2022-12-10T01:54:19.423Z,-1.70
2022-12-10T01:54:28.823Z,-1.70
2022-12-10T01:54:38.209Z,-1.70
2022-12-10T01:54:47.611Z,-1.70
2022-12-10T01:54:57.014Z,-1.70
2022-12-10T01:55:06.464Z,-1.70
2022-12-10T01:55:15.855Z,-1.70
2022-12-10T01:55:25.260Z,-1.70
2022-12-10T01:55:44.061Z,-1.70
2022-12-10T01:55:53.482Z,-1.70
2022-12-10T01:56:02.872Z,-1.70
2022-12-10T01:56:12.261Z,-1.70
2022-12-10T01:56:21.668Z,-1.70
2022-12-10T01:56:31.105Z,-1.70
2022-12-10T01:56:40.527Z,-1.70
2022-12-10T01:56:49.927Z,-1.70
2022-12-10T01:56:59.315Z,-1.70
2022-12-10T01:57:08.715Z,-1.70
2022-12-10T01:57:18.109Z,-1.70
2022-12-10T01:57:27.537Z,-1.70
2022-12-10T01:57:36.939Z,-1.70
2022-12-10T01:57:46.315Z,-1.70
2022-12-10T01:57:55.715Z,-1.70
2022-12-10T01:58:05.115Z,-1.70
2022-12-10T01:58:23.995Z,-1.60
2022-12-10T01:58:33.377Z,-1.60
2022-12-10T01:58:42.920Z,-1.60
2022-12-10T01:58:52.207Z,-1.60
2022-12-10T01:59:01.605Z,-1.70
2022-12-10T01:59:10.983Z,-1.60
2022-12-10T01:59:20.393Z,-1.60
2022-12-10T01:59:29.785Z,-1.60
2022-12-10T01:59:39.172Z,-1.50
2022-12-10T01:59:48.552Z,-1.50
2022-12-10T01:59:57.942Z,-1.50
2022-12-10T02:00:07.939Z,-1.50
2022-12-10T02:00:16.805Z,-1.50
2022-12-10T02:00:26.197Z,-1.40
2022-12-10T02:00:35.607Z,-1.40
2022-12-10T02:00:45.015Z,-1.40
2022-12-10T02:01:03.876Z,-1.30
2022-12-10T02:01:13.264Z,-1.30
2022-12-10T02:01:22.657Z,-1.30
2022-12-10T02:01:31.965Z,-1.20
2022-12-10T02:01:41.371Z,-1.20
2022-12-10T02:01:50.901Z,-1.20
2022-12-10T02:02:00.208Z,-1.20
2022-12-10T02:02:09.639Z,-1.10
2022-12-10T02:02:18.994Z,-1.10
2022-12-10T02:02:28.384Z,-1.10
2022-12-10T02:02:37.788Z,-1.00
2022-12-10T02:02:47.161Z,-1.00
2022-12-10T02:02:56.552Z,-1.00
2022-12-10T02:03:05.946Z,-0.90
2022-12-10T02:03:15.336Z,-0.90
2022-12-10T02:03:34.097Z,-0.90
2022-12-10T02:03:43.508Z,-0.90
2022-12-10T02:03:52.900Z,-0.80
2022-12-10T02:04:02.316Z,-0.80
2022-12-10T02:04:11.692Z,-0.80
2022-12-10T02:04:21.076Z,-0.70
2022-12-10T02:04:30.460Z,-0.70
2022-12-10T02:04:39.857Z,-0.70
2022-12-10T02:04:49.248Z,-0.70
2022-12-10T02:04:58.616Z,-0.60
2022-12-10T02:05:08.006Z,-0.60
2022-12-10T02:05:17.396Z,-0.60
2022-12-10T02:05:26.775Z,-0.50
2022-12-10T02:05:36.168Z,-0.50
2022-12-10T02:05:45.547Z,-0.50
2022-12-10T02:05:54.934Z,-0.50
2022-12-10T02:06:13.738Z,-0.50
2022-12-10T02:06:23.128Z,-0.40
2022-12-10T02:06:32.511Z,-0.40
2022-12-10T02:06:41.918Z,-0.40
2022-12-10T02:06:51.361Z,-0.40
2022-12-10T02:07:00.740Z,-0.30
2022-12-10T02:07:10.132Z,-0.30
2022-12-10T02:07:19.512Z,-0.30
2022-12-10T02:07:28.893Z,-0.30
2022-12-10T02:07:38.265Z,-0.30
2022-12-10T02:07:47.911Z,-0.30
2022-12-10T02:07:57.172Z,-0.20
2022-12-10T02:08:06.542Z,-0.20
2022-12-10T02:08:15.921Z,-0.20
2022-12-10T02:08:25.314Z,-0.20
2022-12-10T02:08:44.051Z,-0.20
2022-12-10T02:08:53.442Z,-0.10
2022-12-10T02:09:02.819Z,-0.10
2022-12-10T02:09:12.203Z,-0.10
2022-12-10T02:09:21.593Z,-0.10
2022-12-10T02:09:30.967Z,-0.10
2022-12-10T02:09:40.347Z,-0.10
2022-12-10T02:09:49.781Z,-0.10